sensor_id;sensor_type;location;lat;lon;timestamp;P1;durP1;ratioP1;P2;durP2;ratioP2
23159;SDS011;11748;50.844;4.396;2024-02-15T00:02:14;18.20;;;5.57;;
23159;SDS011;11748;50.844;4.396;2024-02-15T00:04:40;16.73;;;5.53;;
23159;SDS011;11748;50.844;4.396;2024-02-15T00:07:06;13.35;;;4.65;;
23159;SDS011;11748;50.844;4.396;2024-02-15T00:09:32;15.18;;;5.15;;
23159;SDS011;11748;50.844;4.396;2024-02-15T00:11:59;13.15;;;4.80;;
23159;SDS011;11748;50.844;4.396;2024-02-15T00:14:25;14.75;;;5.10;;
23159;SDS011;11748;50.844;4.396;2024-02-15T00:16:53;17.60;;;5.00;;
23159;SDS011;11748;50.844;4.396;2024-02-15T00:19:18;13.70;;;4.03;;
23159;SDS011;11748;50.844;4.396;2024-02-15T00:21:44;16.42;;;4.68;;
23159;SDS011;11748;50.844;4.396;2024-02-15T00:24:10;13.80;;;4.93;;
23159;SDS011;11748;50.844;4.396;2024-02-15T00:26:37;15.88;;;4.43;;
23159;SDS011;11748;50.844;4.396;2024-02-15T00:29:03;18.00;;;4.72;;
23159;SDS011;11748;50.844;4.396;2024-02-15T00:31:29;10.93;;;4.00;;
23159;SDS011;11748;50.844;4.396;2024-02-15T00:33:54;11.82;;;4.30;;
23159;SDS011;11748;50.844;4.396;2024-02-15T00:36:20;16.95;;;4.18;;
23159;SDS011;11748;50.844;4.396;2024-02-15T00:38:46;12.93;;;4.07;;
23159;SDS011;11748;50.844;4.396;2024-02-15T00:41:12;12.18;;;3.95;;
23159;SDS011;11748;50.844;4.396;2024-02-15T00:43:37;12.27;;;3.65;;
23159;SDS011;11748;50.844;4.396;2024-02-15T00:46:03;7.90;;;3.33;;
23159;SDS011;11748;50.844;4.396;2024-02-15T00:48:29;12.30;;;3.35;;
23159;SDS011;11748;50.844;4.396;2024-02-15T00:50:58;11.68;;;3.10;;
23159;SDS011;11748;50.844;4.396;2024-02-15T00:53:24;14.00;;;3.20;;
23159;SDS011;11748;50.844;4.396;2024-02-15T00:55:51;11.05;;;3.30;;
23159;SDS011;11748;50.844;4.396;2024-02-15T00:58:16;12.27;;;3.47;;
23159;SDS011;11748;50.844;4.396;2024-02-15T01:00:42;11.57;;;2.92;;
23159;SDS011;11748;50.844;4.396;2024-02-15T01:03:08;13.00;;;3.15;;
23159;SDS011;11748;50.844;4.396;2024-02-15T01:05:35;8.93;;;3.05;;
23159;SDS011;11748;50.844;4.396;2024-02-15T01:08:01;9.18;;;3.20;;
23159;SDS011;11748;50.844;4.396;2024-02-15T01:10:28;11.95;;;2.92;;
23159;SDS011;11748;50.844;4.396;2024-02-15T01:12:54;11.02;;;2.95;;
23159;SDS011;11748;50.844;4.396;2024-02-15T01:15:20;12.80;;;3.38;;
23159;SDS011;11748;50.844;4.396;2024-02-15T01:17:46;7.18;;;2.70;;
23159;SDS011;11748;50.844;4.396;2024-02-15T01:20:12;10.05;;;2.67;;
23159;SDS011;11748;50.844;4.396;2024-02-15T01:22:38;8.88;;;2.67;;
23159;SDS011;11748;50.844;4.396;2024-02-15T01:25:03;13.18;;;2.88;;
23159;SDS011;11748;50.844;4.396;2024-02-15T01:27:29;8.38;;;2.78;;
23159;SDS011;11748;50.844;4.396;2024-02-15T01:29:58;9.63;;;2.40;;
23159;SDS011;11748;50.844;4.396;2024-02-15T01:32:24;11.75;;;3.00;;
23159;SDS011;11748;50.844;4.396;2024-02-15T01:34:50;7.45;;;2.38;;
23159;SDS011;11748;50.844;4.396;2024-02-15T01:37:19;7.30;;;2.00;;
23159;SDS011;11748;50.844;4.396;2024-02-15T01:39:45;10.35;;;2.83;;
23159;SDS011;11748;50.844;4.396;2024-02-15T01:42:12;9.75;;;2.45;;
23159;SDS011;11748;50.844;4.396;2024-02-15T01:44:39;8.88;;;2.63;;
23159;SDS011;11748;50.844;4.396;2024-02-15T01:47:05;11.35;;;2.58;;
23159;SDS011;11748;50.844;4.396;2024-02-15T01:49:32;7.13;;;2.00;;
23159;SDS011;11748;50.844;4.396;2024-02-15T01:51:59;8.35;;;2.30;;
23159;SDS011;11748;50.844;4.396;2024-02-15T01:54:27;8.85;;;2.60;;
23159;SDS011;11748;50.844;4.396;2024-02-15T01:56:53;7.10;;;2.50;;
23159;SDS011;11748;50.844;4.396;2024-02-15T01:59:19;11.13;;;2.83;;
23159;SDS011;11748;50.844;4.396;2024-02-15T02:01:48;7.03;;;2.00;;
23159;SDS011;11748;50.844;4.396;2024-02-15T02:04:14;7.47;;;2.13;;
23159;SDS011;11748;50.844;4.396;2024-02-15T02:06:40;13.77;;;2.00;;
23159;SDS011;11748;50.844;4.396;2024-02-15T02:09:09;8.38;;;2.25;;
23159;SDS011;11748;50.844;4.396;2024-02-15T02:11:37;6.82;;;2.33;;
23159;SDS011;11748;50.844;4.396;2024-02-15T02:14:03;9.07;;;2.50;;
23159;SDS011;11748;50.844;4.396;2024-02-15T02:16:30;6.30;;;1.85;;
23159;SDS011;11748;50.844;4.396;2024-02-15T02:18:57;5.93;;;2.00;;
23159;SDS011;11748;50.844;4.396;2024-02-15T02:21:25;5.25;;;2.05;;
23159;SDS011;11748;50.844;4.396;2024-02-15T02:23:53;4.18;;;1.70;;
23159;SDS011;11748;50.844;4.396;2024-02-15T02:26:21;6.45;;;2.05;;
23159;SDS011;11748;50.844;4.396;2024-02-15T02:28:48;6.38;;;2.10;;
23159;SDS011;11748;50.844;4.396;2024-02-15T02:31:14;10.95;;;2.50;;
23159;SDS011;11748;50.844;4.396;2024-02-15T02:33:41;6.47;;;1.70;;
23159;SDS011;11748;50.844;4.396;2024-02-15T02:36:07;7.05;;;1.90;;
23159;SDS011;11748;50.844;4.396;2024-02-15T02:38:35;10.63;;;2.33;;
23159;SDS011;11748;50.844;4.396;2024-02-15T02:41:06;7.72;;;1.80;;
23159;SDS011;11748;50.844;4.396;2024-02-15T02:43:32;7.05;;;2.10;;
23159;SDS011;11748;50.844;4.396;2024-02-15T02:45:57;7.30;;;2.00;;
23159;SDS011;11748;50.844;4.396;2024-02-15T02:48:23;6.95;;;2.00;;
23159;SDS011;11748;50.844;4.396;2024-02-15T02:50:49;6.43;;;1.77;;
23159;SDS011;11748;50.844;4.396;2024-02-15T02:53:16;6.40;;;2.08;;
23159;SDS011;11748;50.844;4.396;2024-02-15T02:55:41;8.32;;;2.65;;
23159;SDS011;11748;50.844;4.396;2024-02-15T02:58:07;8.00;;;1.90;;
23159;SDS011;11748;50.844;4.396;2024-02-15T03:00:33;5.93;;;2.38;;
23159;SDS011;11748;50.844;4.396;2024-02-15T03:02:59;7.95;;;2.20;;
23159;SDS011;11748;50.844;4.396;2024-02-15T03:05:25;5.75;;;2.05;;
23159;SDS011;11748;50.844;4.396;2024-02-15T03:07:51;6.90;;;2.42;;
23159;SDS011;11748;50.844;4.396;2024-02-15T03:10:17;4.40;;;1.85;;
23159;SDS011;11748;50.844;4.396;2024-02-15T03:12:43;5.45;;;1.88;;
23159;SDS011;11748;50.844;4.396;2024-02-15T03:15:12;6.90;;;1.70;;
23159;SDS011;11748;50.844;4.396;2024-02-15T03:17:42;4.97;;;1.98;;
23159;SDS011;11748;50.844;4.396;2024-02-15T03:20:12;7.00;;;2.00;;
23159;SDS011;11748;50.844;4.396;2024-02-15T03:22:58;5.97;;;1.90;;
23159;SDS011;11748;50.844;4.396;2024-02-15T03:25:25;6.90;;;2.15;;
23159;SDS011;11748;50.844;4.396;2024-02-15T03:27:55;6.25;;;2.28;;
23159;SDS011;11748;50.844;4.396;2024-02-15T03:30:23;6.57;;;2.22;;
23159;SDS011;11748;50.844;4.396;2024-02-15T03:32:50;9.15;;;2.10;;
23159;SDS011;11748;50.844;4.396;2024-02-15T03:35:19;4.88;;;1.83;;
23159;SDS011;11748;50.844;4.396;2024-02-15T03:37:47;7.13;;;2.30;;
23159;SDS011;11748;50.844;4.396;2024-02-15T03:40:16;9.75;;;2.13;;
23159;SDS011;11748;50.844;4.396;2024-02-15T03:42:42;11.13;;;2.33;;
23159;SDS011;11748;50.844;4.396;2024-02-15T03:45:09;10.07;;;2.55;;
23159;SDS011;11748;50.844;4.396;2024-02-15T03:47:36;3.85;;;1.73;;
23159;SDS011;11748;50.844;4.396;2024-02-15T03:50:05;5.45;;;1.83;;
23159;SDS011;11748;50.844;4.396;2024-02-15T03:52:33;8.63;;;2.25;;
23159;SDS011;11748;50.844;4.396;2024-02-15T03:54:59;6.63;;;2.53;;
23159;SDS011;11748;50.844;4.396;2024-02-15T03:57:25;11.40;;;2.65;;
23159;SDS011;11748;50.844;4.396;2024-02-15T03:59:51;6.82;;;2.17;;
23159;SDS011;11748;50.844;4.396;2024-02-15T04:02:22;5.32;;;1.80;;
23159;SDS011;11748;50.844;4.396;2024-02-15T04:04:53;6.30;;;1.67;;
23159;SDS011;11748;50.844;4.396;2024-02-15T04:07:21;8.98;;;2.35;;
23159;SDS011;11748;50.844;4.396;2024-02-15T04:09:48;6.88;;;2.08;;
23159;SDS011;11748;50.844;4.396;2024-02-15T04:12:14;6.50;;;2.50;;
23159;SDS011;11748;50.844;4.396;2024-02-15T04:14:45;8.27;;;2.28;;
23159;SDS011;11748;50.844;4.396;2024-02-15T04:17:12;5.40;;;2.00;;
23159;SDS011;11748;50.844;4.396;2024-02-15T04:19:54;7.28;;;2.13;;
23159;SDS011;11748;50.844;4.396;2024-02-15T04:22:28;7.13;;;2.30;;
23159;SDS011;11748;50.844;4.396;2024-02-15T04:24:53;4.95;;;2.00;;
23159;SDS011;11748;50.844;4.396;2024-02-15T04:27:21;6.72;;;1.80;;
23159;SDS011;11748;50.844;4.396;2024-02-15T04:29:46;7.57;;;2.40;;
23159;SDS011;11748;50.844;4.396;2024-02-15T04:32:13;7.30;;;2.05;;
23159;SDS011;11748;50.844;4.396;2024-02-15T04:34:39;12.38;;;2.00;;
23159;SDS011;11748;50.844;4.396;2024-02-15T04:37:05;9.55;;;2.25;;
23159;SDS011;11748;50.844;4.396;2024-02-15T04:39:37;5.18;;;2.05;;
23159;SDS011;11748;50.844;4.396;2024-02-15T04:42:03;6.60;;;2.15;;
23159;SDS011;11748;50.844;4.396;2024-02-15T04:44:31;6.03;;;2.08;;
23159;SDS011;11748;50.844;4.396;2024-02-15T04:47:00;7.35;;;2.38;;
23159;SDS011;11748;50.844;4.396;2024-02-15T04:49:28;6.25;;;2.00;;
23159;SDS011;11748;50.844;4.396;2024-02-15T04:51:54;5.68;;;1.85;;
23159;SDS011;11748;50.844;4.396;2024-02-15T04:54:21;7.55;;;2.40;;
23159;SDS011;11748;50.844;4.396;2024-02-15T04:56:47;9.07;;;2.17;;
23159;SDS011;11748;50.844;4.396;2024-02-15T04:59:12;8.00;;;2.17;;
23159;SDS011;11748;50.844;4.396;2024-02-15T05:01:41;5.30;;;1.98;;
23159;SDS011;11748;50.844;4.396;2024-02-15T05:04:10;6.15;;;2.03;;
23159;SDS011;11748;50.844;4.396;2024-02-15T05:06:37;3.35;;;1.50;;
23159;SDS011;11748;50.844;4.396;2024-02-15T05:09:03;6.07;;;1.52;;
23159;SDS011;11748;50.844;4.396;2024-02-15T05:11:39;6.38;;;1.60;;
23159;SDS011;11748;50.844;4.396;2024-02-15T05:14:13;5.10;;;1.70;;
23159;SDS011;11748;50.844;4.396;2024-02-15T05:16:44;6.45;;;1.50;;
23159;SDS011;11748;50.844;4.396;2024-02-15T05:19:12;5.97;;;2.15;;
23159;SDS011;11748;50.844;4.396;2024-02-15T05:21:45;4.88;;;1.67;;
23159;SDS011;11748;50.844;4.396;2024-02-15T05:27:01;4.22;;;1.15;;
23159;SDS011;11748;50.844;4.396;2024-02-15T05:29:27;6.85;;;2.00;;
23159;SDS011;11748;50.844;4.396;2024-02-15T05:31:53;6.32;;;1.90;;
23159;SDS011;11748;50.844;4.396;2024-02-15T05:34:20;3.72;;;1.70;;
23159;SDS011;11748;50.844;4.396;2024-02-15T05:36:46;6.68;;;1.50;;
23159;SDS011;11748;50.844;4.396;2024-02-15T05:39:14;2.83;;;1.33;;
23159;SDS011;11748;50.844;4.396;2024-02-15T05:41:40;3.92;;;1.40;;
23159;SDS011;11748;50.844;4.396;2024-02-15T05:44:05;4.50;;;1.52;;
23159;SDS011;11748;50.844;4.396;2024-02-15T05:46:32;4.13;;;1.33;;
23159;SDS011;11748;50.844;4.396;2024-02-15T05:49:02;3.13;;;1.42;;
23159;SDS011;11748;50.844;4.396;2024-02-15T05:51:29;5.13;;;1.05;;
23159;SDS011;11748;50.844;4.396;2024-02-15T05:53:56;4.72;;;1.30;;
23159;SDS011;11748;50.844;4.396;2024-02-15T05:56:24;9.75;;;1.83;;
23159;SDS011;11748;50.844;4.396;2024-02-15T05:58:51;7.07;;;1.63;;
23159;SDS011;11748;50.844;4.396;2024-02-15T06:01:17;3.83;;;1.30;;
23159;SDS011;11748;50.844;4.396;2024-02-15T06:03:45;3.80;;;1.40;;
23159;SDS011;11748;50.844;4.396;2024-02-15T06:06:13;3.75;;;1.55;;
23159;SDS011;11748;50.844;4.396;2024-02-15T06:08:38;4.13;;;1.10;;
23159;SDS011;11748;50.844;4.396;2024-02-15T06:11:04;3.80;;;1.10;;
23159;SDS011;11748;50.844;4.396;2024-02-15T06:13:30;4.40;;;1.73;;
23159;SDS011;11748;50.844;4.396;2024-02-15T06:15:57;3.53;;;1.10;;
23159;SDS011;11748;50.844;4.396;2024-02-15T06:18:23;4.05;;;1.30;;
23159;SDS011;11748;50.844;4.396;2024-02-15T06:20:55;4.07;;;1.20;;
23159;SDS011;11748;50.844;4.396;2024-02-15T06:23:28;4.00;;;1.23;;
23159;SDS011;11748;50.844;4.396;2024-02-15T06:25:56;4.95;;;1.33;;
23159;SDS011;11748;50.844;4.396;2024-02-15T06:28:27;4.53;;;1.88;;
23159;SDS011;11748;50.844;4.396;2024-02-15T06:31:12;6.32;;;1.42;;
23159;SDS011;11748;50.844;4.396;2024-02-15T06:33:57;6.18;;;1.63;;
23159;SDS011;11748;50.844;4.396;2024-02-15T06:36:47;3.77;;;1.07;;
23159;SDS011;11748;50.844;4.396;2024-02-15T06:39:32;5.03;;;1.17;;
23159;SDS011;11748;50.844;4.396;2024-02-15T06:42:14;3.78;;;1.48;;
23159;SDS011;11748;50.844;4.396;2024-02-15T06:44:45;5.45;;;1.42;;
23159;SDS011;11748;50.844;4.396;2024-02-15T06:47:11;4.18;;;1.20;;
23159;SDS011;11748;50.844;4.396;2024-02-15T06:49:38;5.60;;;1.42;;
23159;SDS011;11748;50.844;4.396;2024-02-15T06:52:05;3.85;;;1.15;;
23159;SDS011;11748;50.844;4.396;2024-02-15T06:54:32;4.57;;;1.38;;
23159;SDS011;11748;50.844;4.396;2024-02-15T06:57:03;2.55;;;1.33;;
23159;SDS011;11748;50.844;4.396;2024-02-15T06:59:30;3.78;;;1.52;;
23159;SDS011;11748;50.844;4.396;2024-02-15T07:02:00;4.88;;;1.45;;
23159;SDS011;11748;50.844;4.396;2024-02-15T07:04:27;4.95;;;1.17;;
23159;SDS011;11748;50.844;4.396;2024-02-15T07:06:53;5.00;;;1.35;;
23159;SDS011;11748;50.844;4.396;2024-02-15T07:09:22;3.28;;;1.17;;
23159;SDS011;11748;50.844;4.396;2024-02-15T07:11:50;7.72;;;1.40;;
23159;SDS011;11748;50.844;4.396;2024-02-15T07:14:16;7.70;;;1.52;;
23159;SDS011;11748;50.844;4.396;2024-02-15T07:16:45;2.80;;;1.50;;
23159;SDS011;11748;50.844;4.396;2024-02-15T07:19:14;3.90;;;1.23;;
23159;SDS011;11748;50.844;4.396;2024-02-15T07:21:41;7.90;;;1.65;;
23159;SDS011;11748;50.844;4.396;2024-02-15T07:24:07;3.63;;;1.40;;
23159;SDS011;11748;50.844;4.396;2024-02-15T07:26:33;5.30;;;1.73;;
23159;SDS011;11748;50.844;4.396;2024-02-15T07:29:01;3.03;;;1.23;;
23159;SDS011;11748;50.844;4.396;2024-02-15T07:31:31;3.92;;;1.42;;
23159;SDS011;11748;50.844;4.396;2024-02-15T07:33:58;3.47;;;1.23;;
23159;SDS011;11748;50.844;4.396;2024-02-15T07:36:24;3.50;;;1.30;;
23159;SDS011;11748;50.844;4.396;2024-02-15T07:38:51;3.90;;;1.60;;
23159;SDS011;11748;50.844;4.396;2024-02-15T07:41:18;5.07;;;1.35;;
23159;SDS011;11748;50.844;4.396;2024-02-15T07:43:47;6.57;;;1.60;;
23159;SDS011;11748;50.844;4.396;2024-02-15T07:46:17;7.35;;;1.60;;
23159;SDS011;11748;50.844;4.396;2024-02-15T07:48:43;4.38;;;1.13;;
23159;SDS011;11748;50.844;4.396;2024-02-15T07:51:13;3.95;;;1.40;;
23159;SDS011;11748;50.844;4.396;2024-02-15T07:53:41;4.10;;;1.17;;
23159;SDS011;11748;50.844;4.396;2024-02-15T07:56:11;4.30;;;1.50;;
23159;SDS011;11748;50.844;4.396;2024-02-15T07:58:44;4.18;;;1.35;;
23159;SDS011;11748;50.844;4.396;2024-02-15T08:01:15;3.75;;;1.60;;
23159;SDS011;11748;50.844;4.396;2024-02-15T08:03:41;5.55;;;1.60;;
23159;SDS011;11748;50.844;4.396;2024-02-15T08:06:13;7.68;;;1.42;;
23159;SDS011;11748;50.844;4.396;2024-02-15T08:08:41;8.98;;;1.35;;
23159;SDS011;11748;50.844;4.396;2024-02-15T08:11:11;6.53;;;1.85;;
23159;SDS011;11748;50.844;4.396;2024-02-15T08:13:46;6.13;;;1.45;;
23159;SDS011;11748;50.844;4.396;2024-02-15T08:16:18;3.88;;;2.03;;
23159;SDS011;11748;50.844;4.396;2024-02-15T08:18:45;4.22;;;1.50;;
23159;SDS011;11748;50.844;4.396;2024-02-15T08:21:11;4.38;;;1.33;;
23159;SDS011;11748;50.844;4.396;2024-02-15T08:23:37;4.57;;;1.30;;
23159;SDS011;11748;50.844;4.396;2024-02-15T08:26:03;5.55;;;1.65;;
23159;SDS011;11748;50.844;4.396;2024-02-15T08:28:29;3.50;;;1.50;;
23159;SDS011;11748;50.844;4.396;2024-02-15T08:30:56;7.65;;;1.95;;
23159;SDS011;11748;50.844;4.396;2024-02-15T08:33:23;4.20;;;1.30;;
23159;SDS011;11748;50.844;4.396;2024-02-15T08:35:57;5.28;;;1.48;;
23159;SDS011;11748;50.844;4.396;2024-02-15T08:38:29;3.85;;;1.48;;
23159;SDS011;11748;50.844;4.396;2024-02-15T08:40:55;3.83;;;1.50;;
23159;SDS011;11748;50.844;4.396;2024-02-15T08:43:21;3.63;;;1.30;;
23159;SDS011;11748;50.844;4.396;2024-02-15T08:45:46;7.53;;;1.42;;
23159;SDS011;11748;50.844;4.396;2024-02-15T08:48:13;5.05;;;1.42;;
23159;SDS011;11748;50.844;4.396;2024-02-15T08:50:39;7.05;;;1.40;;
23159;SDS011;11748;50.844;4.396;2024-02-15T08:53:07;4.28;;;1.63;;
23159;SDS011;11748;50.844;4.396;2024-02-15T08:55:33;6.88;;;1.30;;
23159;SDS011;11748;50.844;4.396;2024-02-15T08:58:02;11.50;;;1.60;;
23159;SDS011;11748;50.844;4.396;2024-02-15T09:00:29;5.85;;;1.50;;
23159;SDS011;11748;50.844;4.396;2024-02-15T09:02:55;4.90;;;1.52;;
23159;SDS011;11748;50.844;4.396;2024-02-15T09:05:23;5.75;;;1.63;;
23159;SDS011;11748;50.844;4.396;2024-02-15T09:07:50;6.78;;;2.25;;
23159;SDS011;11748;50.844;4.396;2024-02-15T09:10:17;4.65;;;1.38;;
23159;SDS011;11748;50.844;4.396;2024-02-15T09:12:49;4.63;;;1.20;;
23159;SDS011;11748;50.844;4.396;2024-02-15T09:15:15;5.75;;;1.40;;
23159;SDS011;11748;50.844;4.396;2024-02-15T09:17:43;3.47;;;1.63;;
23159;SDS011;11748;50.844;4.396;2024-02-15T09:20:12;4.88;;;1.48;;
23159;SDS011;11748;50.844;4.396;2024-02-15T09:22:49;6.03;;;1.67;;
23159;SDS011;11748;50.844;4.396;2024-02-15T09:25:16;4.05;;;1.20;;
23159;SDS011;11748;50.844;4.396;2024-02-15T09:27:42;3.50;;;1.20;;
23159;SDS011;11748;50.844;4.396;2024-02-15T09:30:09;5.25;;;1.73;;
23159;SDS011;11748;50.844;4.396;2024-02-15T09:32:38;3.30;;;1.10;;
23159;SDS011;11748;50.844;4.396;2024-02-15T09:35:04;3.60;;;1.33;;
23159;SDS011;11748;50.844;4.396;2024-02-15T09:37:44;4.60;;;1.67;;
23159;SDS011;11748;50.844;4.396;2024-02-15T09:40:14;10.00;;;1.50;;
23159;SDS011;11748;50.844;4.396;2024-02-15T09:42:42;5.75;;;1.30;;
23159;SDS011;11748;50.844;4.396;2024-02-15T09:45:10;2.67;;;1.10;;
23159;SDS011;11748;50.844;4.396;2024-02-15T09:47:41;5.47;;;1.40;;
23159;SDS011;11748;50.844;4.396;2024-02-15T09:50:11;5.05;;;1.08;;
23159;SDS011;11748;50.844;4.396;2024-02-15T09:52:39;3.60;;;1.38;;
23159;SDS011;11748;50.844;4.396;2024-02-15T09:55:06;4.10;;;1.17;;
23159;SDS011;11748;50.844;4.396;2024-02-15T09:57:38;8.85;;;1.40;;
23159;SDS011;11748;50.844;4.396;2024-02-15T10:00:07;5.13;;;1.40;;
23159;SDS011;11748;50.844;4.396;2024-02-15T10:02:36;7.13;;;1.52;;
23159;SDS011;11748;50.844;4.396;2024-02-15T10:05:06;4.07;;;1.30;;
23159;SDS011;11748;50.844;4.396;2024-02-15T10:07:37;4.22;;;1.25;;
23159;SDS011;11748;50.844;4.396;2024-02-15T10:10:16;4.80;;;1.27;;
23159;SDS011;11748;50.844;4.396;2024-02-15T10:12:46;6.43;;;1.35;;
23159;SDS011;11748;50.844;4.396;2024-02-15T10:15:35;3.33;;;1.20;;
23159;SDS011;11748;50.844;4.396;2024-02-15T10:18:03;4.43;;;1.52;;
23159;SDS011;11748;50.844;4.396;2024-02-15T10:20:33;3.40;;;1.23;;
23159;SDS011;11748;50.844;4.396;2024-02-15T10:25:29;6.07;;;1.38;;
23159;SDS011;11748;50.844;4.396;2024-02-15T10:28:04;6.75;;;1.63;;
23159;SDS011;11748;50.844;4.396;2024-02-15T10:30:42;3.05;;;1.30;;
23159;SDS011;11748;50.844;4.396;2024-02-15T10:33:10;3.00;;;1.00;;
23159;SDS011;11748;50.844;4.396;2024-02-15T10:35:49;5.22;;;1.27;;
23159;SDS011;11748;50.844;4.396;2024-02-15T10:38:14;2.72;;;1.42;;
23159;SDS011;11748;50.844;4.396;2024-02-15T10:40:40;4.50;;;1.50;;
23159;SDS011;11748;50.844;4.396;2024-02-15T10:43:07;4.63;;;1.10;;
23159;SDS011;11748;50.844;4.396;2024-02-15T10:45:36;5.07;;;1.30;;
23159;SDS011;11748;50.844;4.396;2024-02-15T10:48:02;4.35;;;1.30;;
23159;SDS011;11748;50.844;4.396;2024-02-15T10:50:31;3.40;;;1.20;;
23159;SDS011;11748;50.844;4.396;2024-02-15T10:52:57;8.45;;;1.50;;
23159;SDS011;11748;50.844;4.396;2024-02-15T10:58:19;3.35;;;1.20;;
23159;SDS011;11748;50.844;4.396;2024-02-15T11:00:49;8.25;;;1.13;;
23159;SDS011;11748;50.844;4.396;2024-02-15T11:03:19;2.35;;;1.00;;
23159;SDS011;11748;50.844;4.396;2024-02-15T11:05:51;2.55;;;1.13;;
23159;SDS011;11748;50.844;4.396;2024-02-15T11:08:20;2.78;;;1.13;;
23159;SDS011;11748;50.844;4.396;2024-02-15T11:10:47;3.15;;;1.10;;
23159;SDS011;11748;50.844;4.396;2024-02-15T11:13:13;2.58;;;1.08;;
23159;SDS011;11748;50.844;4.396;2024-02-15T11:15:46;2.47;;;0.90;;
23159;SDS011;11748;50.844;4.396;2024-02-15T11:21:13;3.80;;;1.17;;
23159;SDS011;11748;50.844;4.396;2024-02-15T11:24:18;4.70;;;1.80;;
23159;SDS011;11748;50.844;4.396;2024-02-15T11:26:50;3.58;;;1.52;;
23159;SDS011;11748;50.844;4.396;2024-02-15T11:32:45;2.78;;;1.15;;
23159;SDS011;11748;50.844;4.396;2024-02-15T11:35:17;3.25;;;1.17;;
23159;SDS011;11748;50.844;4.396;2024-02-15T11:40:13;3.03;;;1.88;;
23159;SDS011;11748;50.844;4.396;2024-02-15T11:42:43;4.63;;;1.45;;
23159;SDS011;11748;50.844;4.396;2024-02-15T11:45:09;3.10;;;0.90;;
23159;SDS011;11748;50.844;4.396;2024-02-15T11:47:40;2.75;;;1.20;;
23159;SDS011;11748;50.844;4.396;2024-02-15T11:50:13;2.85;;;1.20;;
23159;SDS011;11748;50.844;4.396;2024-02-15T11:52:49;3.45;;;1.52;;
23159;SDS011;11748;50.844;4.396;2024-02-15T11:55:29;3.50;;;1.40;;
23159;SDS011;11748;50.844;4.396;2024-02-15T12:00:27;4.00;;;1.00;;
23159;SDS011;11748;50.844;4.396;2024-02-15T12:03:13;2.85;;;1.50;;
23159;SDS011;11748;50.844;4.396;2024-02-15T12:05:58;4.75;;;2.08;;
23159;SDS011;11748;50.844;4.396;2024-02-15T12:08:45;4.00;;;2.08;;
23159;SDS011;11748;50.844;4.396;2024-02-15T12:11:30;5.80;;;2.03;;
23159;SDS011;11748;50.844;4.396;2024-02-15T12:14:15;3.70;;;1.67;;
23159;SDS011;11748;50.844;4.396;2024-02-15T12:19:49;9.70;;;2.63;;
23159;SDS011;11748;50.844;4.396;2024-02-15T12:22:20;6.00;;;1.95;;
23159;SDS011;11748;50.844;4.396;2024-02-15T12:27:21;6.70;;;2.28;;
23159;SDS011;11748;50.844;4.396;2024-02-15T12:29:54;6.00;;;2.58;;
23159;SDS011;11748;50.844;4.396;2024-02-15T12:32:22;6.60;;;1.13;;
23159;SDS011;11748;50.844;4.396;2024-02-15T12:34:48;3.47;;;1.30;;
23159;SDS011;11748;50.844;4.396;2024-02-15T12:37:17;2.33;;;1.50;;
23159;SDS011;11748;50.844;4.396;2024-02-15T12:39:44;3.72;;;2.03;;
23159;SDS011;11748;50.844;4.396;2024-02-15T12:42:10;5.25;;;1.55;;
23159;SDS011;11748;50.844;4.396;2024-02-15T12:44:36;3.58;;;1.90;;
23159;SDS011;11748;50.844;4.396;2024-02-15T12:47:02;4.40;;;1.27;;
23159;SDS011;11748;50.844;4.396;2024-02-15T12:49:29;2.25;;;1.00;;
23159;SDS011;11748;50.844;4.396;2024-02-15T12:55:11;5.13;;;1.38;;
23159;SDS011;11748;50.844;4.396;2024-02-15T12:57:40;3.08;;;1.15;;
23159;SDS011;11748;50.844;4.396;2024-02-15T13:00:10;4.03;;;1.40;;
23159;SDS011;11748;50.844;4.396;2024-02-15T13:02:42;5.05;;;1.40;;
23159;SDS011;11748;50.844;4.396;2024-02-15T13:05:18;3.85;;;1.40;;
23159;SDS011;11748;50.844;4.396;2024-02-15T13:07:45;2.72;;;1.00;;
23159;SDS011;11748;50.844;4.396;2024-02-15T13:10:11;5.20;;;1.15;;
23159;SDS011;11748;50.844;4.396;2024-02-15T13:12:40;3.22;;;0.82;;
23159;SDS011;11748;50.844;4.396;2024-02-15T13:15:07;1.35;;;1.00;;
23159;SDS011;11748;50.844;4.396;2024-02-15T13:17:37;4.25;;;0.88;;
23159;SDS011;11748;50.844;4.396;2024-02-15T13:20:03;2.92;;;1.13;;
23159;SDS011;11748;50.844;4.396;2024-02-15T13:22:30;2.50;;;0.95;;
23159;SDS011;11748;50.844;4.396;2024-02-15T13:24:57;2.40;;;0.93;;
23159;SDS011;11748;50.844;4.396;2024-02-15T13:27:22;2.65;;;0.90;;
23159;SDS011;11748;50.844;4.396;2024-02-15T13:29:49;2.05;;;0.80;;
23159;SDS011;11748;50.844;4.396;2024-02-15T13:32:16;3.75;;;0.80;;
23159;SDS011;11748;50.844;4.396;2024-02-15T13:34:45;3.08;;;0.90;;
23159;SDS011;11748;50.844;4.396;2024-02-15T13:37:21;1.88;;;0.88;;
23159;SDS011;11748;50.844;4.396;2024-02-15T13:39:49;3.03;;;1.05;;
23159;SDS011;11748;50.844;4.396;2024-02-15T13:42:16;1.35;;;0.90;;
23159;SDS011;11748;50.844;4.396;2024-02-15T13:44:44;2.28;;;0.80;;
23159;SDS011;11748;50.844;4.396;2024-02-15T13:47:12;4.60;;;0.90;;
23159;SDS011;11748;50.844;4.396;2024-02-15T13:49:38;3.08;;;1.00;;
23159;SDS011;11748;50.844;4.396;2024-02-15T13:52:05;4.72;;;1.10;;
23159;SDS011;11748;50.844;4.396;2024-02-15T13:54:31;1.33;;;0.70;;
23159;SDS011;11748;50.844;4.396;2024-02-15T13:56:59;5.30;;;0.70;;
23159;SDS011;11748;50.844;4.396;2024-02-15T13:59:27;5.18;;;0.85;;
23159;SDS011;11748;50.844;4.396;2024-02-15T14:01:53;2.95;;;1.05;;
23159;SDS011;11748;50.844;4.396;2024-02-15T14:04:19;2.13;;;0.90;;
23159;SDS011;11748;50.844;4.396;2024-02-15T14:06:46;2.85;;;1.02;;
23159;SDS011;11748;50.844;4.396;2024-02-15T14:09:13;1.98;;;1.02;;
23159;SDS011;11748;50.844;4.396;2024-02-15T14:11:39;6.65;;;1.10;;
23159;SDS011;11748;50.844;4.396;2024-02-15T14:14:05;2.95;;;1.15;;
23159;SDS011;11748;50.844;4.396;2024-02-15T14:16:31;4.57;;;1.38;;
23159;SDS011;11748;50.844;4.396;2024-02-15T14:18:58;3.33;;;1.05;;
23159;SDS011;11748;50.844;4.396;2024-02-15T14:21:24;2.78;;;1.08;;
23159;SDS011;11748;50.844;4.396;2024-02-15T14:23:50;1.60;;;0.90;;
23159;SDS011;11748;50.844;4.396;2024-02-15T14:26:16;2.90;;;0.77;;
23159;SDS011;11748;50.844;4.396;2024-02-15T14:28:42;4.18;;;0.80;;
23159;SDS011;11748;50.844;4.396;2024-02-15T14:31:10;2.10;;;0.73;;
23159;SDS011;11748;50.844;4.396;2024-02-15T14:33:55;3.05;;;0.93;;
23159;SDS011;11748;50.844;4.396;2024-02-15T14:36:22;2.17;;;0.90;;
23159;SDS011;11748;50.844;4.396;2024-02-15T14:38:47;2.20;;;0.90;;
23159;SDS011;11748;50.844;4.396;2024-02-15T14:41:13;4.07;;;1.20;;
23159;SDS011;11748;50.844;4.396;2024-02-15T14:43:39;3.50;;;1.45;;
23159;SDS011;11748;50.844;4.396;2024-02-15T14:46:05;4.60;;;1.20;;
23159;SDS011;11748;50.844;4.396;2024-02-15T14:48:33;2.67;;;1.02;;
23159;SDS011;11748;50.844;4.396;2024-02-15T14:51:00;4.93;;;1.10;;
23159;SDS011;11748;50.844;4.396;2024-02-15T14:53:27;1.75;;;0.90;;
23159;SDS011;11748;50.844;4.396;2024-02-15T14:55:53;2.88;;;0.90;;
23159;SDS011;11748;50.844;4.396;2024-02-15T14:58:22;2.90;;;1.50;;
23159;SDS011;11748;50.844;4.396;2024-02-15T15:00:47;1.98;;;0.90;;
23159;SDS011;11748;50.844;4.396;2024-02-15T15:03:16;1.75;;;0.90;;
23159;SDS011;11748;50.844;4.396;2024-02-15T15:08:31;1.65;;;0.60;;
23159;SDS011;11748;50.844;4.396;2024-02-15T15:11:15;1.98;;;0.75;;
23159;SDS011;11748;50.844;4.396;2024-02-15T15:13:59;3.42;;;0.88;;
23159;SDS011;11748;50.844;4.396;2024-02-15T15:16:25;3.15;;;1.00;;
23159;SDS011;11748;50.844;4.396;2024-02-15T15:18:52;4.82;;;1.00;;
23159;SDS011;11748;50.844;4.396;2024-02-15T15:21:18;3.83;;;1.20;;
23159;SDS011;11748;50.844;4.396;2024-02-15T15:23:44;1.73;;;1.10;;
23159;SDS011;11748;50.844;4.396;2024-02-15T15:26:10;2.53;;;0.90;;